Time;durP1;ratioP1;P1;durP2;ratioP2;P2;SDS_P1;SDS_P2;PMS_P1;PMS_P2;Temp;Humidity;BMP_temperature;BMP_pressure;BME280_temperature;BME280_humidity;BME280_pressure;Samples;Min_cycle;Max_cycle;Signal;HPM_P1;HPM_P2
2023/10/03 00:00:15;;;;;;;2.78;1.33;;;;;;;13.52;76.97;100214.91;5128360;28;20027;-61
2023/10/03 00:02:41;;;;;;;1.77;1.30;;;;;;;13.50;76.78;100201.00;5128183;28;20027;-61
2023/10/03 00:05:08;;;;;;;9.98;1.90;;;;;;;13.59;76.77;100213.88;5128057;28;20020;-61
2023/10/03 00:07:33;;;;;;;4.53;1.63;;;;;;;13.55;76.79;100199.19;5127933;28;20023;-60
2023/10/03 00:09:59;;;;;;;3.60;1.65;;;;;;;13.63;76.78;100207.69;5127997;28;20023;-61
2023/10/03 00:12:25;;;;;;;1.27;1.00;;;;;;;13.68;76.87;100212.78;5127937;28;20030;-60
2023/10/03 00:14:51;;;;;;;1.30;0.95;;;;;;;13.74;76.60;100211.75;5128036;28;20026;-61
2023/10/03 00:17:16;;;;;;;3.63;1.20;;;;;;;13.73;76.62;100208.31;5127897;28;20379;-62
2023/10/03 00:19:41;;;;;;;8.13;1.50;;;;;;;13.71;76.81;100217.91;5109270;28;20023;-62
2023/10/03 00:22:07;;;;;;;4.88;1.70;;;;;;;13.74;76.58;100212.63;5127689;28;20038;-61
2023/10/03 00:24:32;;;;;;;4.95;1.05;;;;;;;13.76;76.63;100204.75;5127906;28;20695;-61
2023/10/03 00:26:59;;;;;;;4.00;1.50;;;;;;;13.71;76.59;100198.78;5127708;28;20019;-61
2023/10/03 00:29:29;;;;;;;3.20;1.42;;;;;;;13.73;76.45;100191.78;5127655;28;20031;-62
2023/10/03 00:31:54;;;;;;;2.25;0.80;;;;;;;13.77;76.29;100203.00;5127451;28;20019;-60
2023/10/03 00:34:23;;;;;;;8.20;1.58;;;;;;;13.80;76.32;100195.94;5127492;28;20459;-60
2023/10/03 00:36:50;;;;;;;6.05;1.20;;;;;;;13.78;75.94;100204.72;5127292;28;20042;-61
2023/10/03 00:39:15;;;;;;;3.28;1.10;;;;;;;13.78;76.07;100196.88;5127461;28;20024;-61
2023/10/03 00:41:40;;;;;;;4.32;1.23;;;;;;;13.80;75.76;100201.16;5127133;28;20043;-61
2023/10/03 00:44:06;;;;;;;3.38;1.20;;;;;;;13.78;75.68;100195.16;5127359;28;20027;-61
2023/10/03 00:46:32;;;;;;;6.50;1.67;;;;;;;13.70;75.49;100190.13;5127246;28;20027;-60
2023/10/03 00:49:05;;;;;;;4.85;1.33;;;;;;;13.63;75.62;100180.72;5127595;28;20024;-61
2023/10/03 00:51:31;;;;;;;6.47;1.52;;;;;;;13.52;75.80;100173.16;5127480;28;20027;-62
2023/10/03 00:53:57;;;;;;;3.55;1.15;;;;;;;13.44;75.63;100162.91;5108776;28;20054;-62
2023/10/03 00:56:23;;;;;;;4.35;1.17;;;;;;;13.31;75.73;100158.84;5127150;28;20016;-61
2023/10/03 00:58:51;;;;;;;6.97;2.05;;;;;;;13.21;76.32;100155.63;5108712;28;20028;-60
2023/10/03 01:01:17;;;;;;;12.35;1.15;;;;;;;13.10;77.09;100153.28;5126512;28;20035;-60
2023/10/03 01:03:47;;;;;;;12.30;1.65;;;;;;;13.01;77.12;100155.19;5126954;28;20022;-61
2023/10/03 01:06:14;;;;;;;3.05;0.98;;;;;;;12.97;77.71;100160.53;5127018;28;20290;-60
2023/10/03 01:08:42;;;;;;;3.30;1.10;;;;;;;12.93;77.77;100161.47;5126968;28;20023;-60
2023/10/03 01:11:15;;;;;;;6.38;1.00;;;;;;;12.84;78.15;100155.56;5126826;28;20094;-61
2023/10/03 01:13:41;;;;;;;0.93;0.70;;;;;;;12.81;78.26;100149.56;5126896;28;20050;-61
2023/10/03 01:16:06;;;;;;;3.55;1.30;;;;;;;12.76;78.58;100147.91;5126712;28;20019;-61
2023/10/03 01:18:33;;;;;;;2.90;1.05;;;;;;;12.72;79.13;100142.81;5126819;28;20031;-61
2023/10/03 01:21:04;;;;;;;3.72;1.15;;;;;;;12.70;79.33;100136.78;5108212;28;20069;-60
2023/10/03 01:23:33;;;;;;;8.23;0.95;;;;;;;12.70;79.71;100128.97;5126668;28;20096;-62
2023/10/03 01:25:59;;;;;;;1.58;0.95;;;;;;;12.68;79.85;100128.16;5126565;28;20027;-61
2023/10/03 01:28:25;;;;;;;2.25;1.40;;;;;;;12.68;80.01;100123.81;5126370;28;20371;-61
2023/10/03 01:30:51;;;;;;;8.65;1.52;;;;;;;12.70;80.00;100115.94;5126451;28;20023;-62
2023/10/03 01:33:17;;;;;;;1.65;1.00;;;;;;;12.72;79.99;100101.13;5108052;28;20020;-60
2023/10/03 01:35:42;;;;;;;6.82;1.33;;;;;;;12.72;80.13;100107.22;5126224;28;20035;-61
2023/10/03 01:38:07;;;;;;;1.20;0.80;;;;;;;12.68;80.31;100102.09;5126167;28;20115;-61
2023/10/03 01:40:33;;;;;;;6.15;1.15;;;;;;;12.70;79.97;100079.50;5126133;28;20434;-61
2023/10/03 01:42:59;;;;;;;2.47;1.38;;;;;;;12.65;80.23;100079.59;5125961;28;20114;-62
2023/10/03 01:45:26;;;;;;;2.00;0.88;;;;;;;12.67;80.02;100079.56;5126311;28;20019;-61
2023/10/03 01:47:53;;;;;;;5.13;1.50;;;;;;;12.70;80.16;100069.91;5126216;28;20102;-61
2023/10/03 01:50:20;;;;;;;2.20;1.27;;;;;;;12.72;79.84;100068.13;5126079;28;20043;-62
2023/10/03 01:52:46;;;;;;;3.53;0.93;;;;;;;12.70;79.60;100063.88;5125670;28;20034;-62
2023/10/03 01:55:14;;;;;;;0.80;0.50;;;;;;;12.70;79.88;100061.25;5126030;28;20027;-62
2023/10/03 01:57:41;;;;;;;2.60;0.98;;;;;;;12.64;79.74;100055.28;5126081;28;20024;-61
2023/10/03 02:00:20;;;;;;;3.10;1.15;;;;;;;12.65;79.55;100050.94;5125821;28;20032;-61
2023/10/03 02:02:50;;;;;;;5.38;1.00;;;;;;;12.61;79.35;100052.75;5125831;28;20028;-61
2023/10/03 02:05:18;;;;;;;6.93;1.52;;;;;;;12.61;79.18;100057.97;5125974;28;20084;-61
2023/10/03 02:07:45;;;;;;;4.10;0.70;;;;;;;12.58;78.84;100050.22;5125729;28;20053;-60
2023/10/03 02:10:13;;;;;;;1.48;0.70;;;;;;;12.57;78.67;100048.50;5125544;28;20055;-60
2023/10/03 02:12:51;;;;;;;3.50;1.08;;;;;;;12.59;78.91;100040.66;5125580;28;20034;-61
2023/10/03 02:15:22;;;;;;;4.97;1.60;;;;;;;12.59;78.91;100030.22;5125799;28;20020;-61
2023/10/03 02:17:49;;;;;;;4.72;1.52;;;;;;;12.61;78.45;100036.25;5107802;28;20015;-60
2023/10/03 02:20:16;;;;;;;1.77;0.95;;;;;;;12.58;78.62;100018.97;5125689;28;20023;-60
2023/10/03 02:22:41;;;;;;;2.05;1.23;;;;;;;12.60;78.59;100008.53;5125477;28;20019;-60
2023/10/03 02:25:09;;;;;;;4.05;1.05;;;;;;;12.50;78.71;99994.84;5125564;28;20031;-61
2023/10/03 02:27:34;;;;;;;1.25;0.70;;;;;;;12.60;78.71;100004.16;5125622;28;20032;-60
2023/10/03 02:29:59;;;;;;;4.80;1.45;;;;;;;12.60;78.52;100001.53;5125596;28;20030;-61
2023/10/03 02:32:26;;;;;;;2.20;1.42;;;;;;;12.60;78.58;100011.97;5125304;28;20024;-60
2023/10/03 02:34:52;;;;;;;3.30;1.05;;;;;;;12.59;78.46;100015.47;5125637;28;20023;-60
2023/10/03 02:37:17;;;;;;;0.77;0.65;;;;;;;12.54;78.57;100012.09;5125417;28;20016;-60
2023/10/03 02:39:43;;;;;;;4.32;1.60;;;;;;;12.48;78.53;100007.91;5125483;28;20080;-60
2023/10/03 02:42:09;;;;;;;5.75;0.82;;;;;;;12.45;78.34;100001.91;5125161;28;20062;-60
2023/10/03 02:44:36;;;;;;;1.92;1.52;;;;;;;12.43;78.67;100004.53;5125314;28;20061;-60
2023/10/03 02:47:02;;;;;;;2.10;0.88;;;;;;;12.37;78.19;100002.94;5125377;28;20027;-60
2023/10/03 02:49:29;;;;;;;3.50;1.10;;;;;;;12.33;78.37;99996.09;5125641;28;20087;-62
2023/10/03 02:51:55;;;;;;;1.05;0.75;;;;;;;12.29;77.96;99991.84;5106982;28;20024;-61
2023/10/03 02:54:22;;;;;;;0.90;0.60;;;;;;;12.25;77.80;99985.00;5125254;28;20020;-60
2023/10/03 02:56:47;;;;;;;1.88;0.98;;;;;;;12.19;77.79;99970.38;5125435;28;20019;-61
2023/10/03 02:59:13;;;;;;;5.80;0.95;;;;;;;12.16;77.82;99970.44;5125055;28;20039;-60
2023/10/03 03:01:38;;;;;;;0.70;0.65;;;;;;;12.09;77.76;99963.66;5124907;28;20023;-60
2023/10/03 03:04:04;;;;;;;1.50;0.75;;;;;;;12.07;77.50;99953.25;5106892;28;20101;-60
2023/10/03 03:06:31;;;;;;;1.17;0.70;;;;;;;12.06;77.32;99954.13;5125252;28;20148;-60
2023/10/03 03:08:56;;;;;;;0.85;0.75;;;;;;;12.05;77.64;99944.63;5125054;28;20511;-60
2023/10/03 03:11:22;;;;;;;1.40;1.20;;;;;;;12.05;77.58;99934.22;5125315;28;20429;-61
2023/10/03 03:13:47;;;;;;;0.85;0.82;;;;;;;11.99;77.69;99921.34;5106859;28;20024;-61
2023/10/03 03:16:14;;;;;;;9.55;0.93;;;;;;;11.94;77.54;99924.06;5125245;28;20065;-60
2023/10/03 03:18:46;;;;;;;3.80;0.93;;;;;;;11.90;77.43;99912.03;5125114;28;20027;-60
2023/10/03 03:21:13;;;;;;;1.30;0.80;;;;;;;11.85;77.42;99908.66;5106771;28;20053;-61
2023/10/03 03:23:42;;;;;;;2.15;0.95;;;;;;;11.78;77.41;99902.72;5127151;28;20032;-60
2023/10/03 03:28:38;;;;;;;3.97;0.77;;;;;;;11.75;77.58;99892.38;5129059;28;20027;-60
2023/10/03 03:31:16;;;;;;;1.60;0.77;;;;;;;11.71;77.52;99894.19;5110535;28;20027;-60
2023/10/03 03:33:42;;;;;;;0.98;0.60;;;;;;;11.70;77.44;99891.63;5110415;28;20024;-60
2023/10/03 03:36:07;;;;;;;3.88;1.17;;;;;;;11.64;77.43;99883.09;5110452;28;20474;-60
2023/10/03 03:38:33;;;;;;;3.20;1.48;;;;;;;11.61;77.41;99880.53;5110331;28;20028;-60
2023/10/03 03:40:59;;;;;;;1.77;1.10;;;;;;;11.55;77.30;99891.06;5110445;28;20460;-60
2023/10/03 03:43:25;;;;;;;0.50;0.50;;;;;;;11.49;77.39;99884.25;5128376;28;20047;-61
2023/10/03 03:45:51;;;;;;;1.92;0.80;;;;;;;11.41;77.43;99878.34;5128645;28;20040;-61
2023/10/03 03:48:19;;;;;;;0.60;0.50;;;;;;;11.36;77.50;99878.44;5110386;28;20114;-60
2023/10/03 03:50:45;;;;;;;1.55;0.82;;;;;;;11.29;77.46;99869.06;5128533;28;20024;-61
2023/10/03 03:53:10;;;;;;;8.40;1.05;;;;;;;11.24;77.67;99866.56;5128344;28;20174;-61
2023/10/03 03:55:37;;;;;;;1.77;1.00;;;;;;;11.20;77.58;99869.25;5128502;28;20050;-60
2023/10/03 03:58:11;;;;;;;2.28;0.88;;;;;;;11.12;77.66;99867.66;5128396;28;20058;-60
2023/10/03 04:00:38;;;;;;;1.40;0.73;;;;;;;11.08;77.86;99858.22;5128225;28;20099;-61
2023/10/03 04:03:13;;;;;;;0.60;0.60;;;;;;;10.96;77.95;99840.28;5128025;28;20035;-60
2023/10/03 04:05:39;;;;;;;4.10;1.15;;;;;;;10.94;78.04;99842.03;5128182;28;20027;-62
2023/10/03 04:08:05;;;;;;;2.08;0.90;;;;;;;10.84;78.03;99831.84;5128054;28;20494;-62
2023/10/03 04:10:30;;;;;;;1.52;0.98;;;;;;;10.75;77.97;99829.41;5128073;28;20467;-60
2023/10/03 04:12:56;;;;;;;1.40;0.80;;;;;;;10.72;78.24;99826.88;5127971;28;20411;-61
2023/10/03 04:15:23;;;;;;;0.73;0.43;;;;;;;10.66;78.62;99818.31;5127998;28;20047;-60
2023/10/03 04:17:49;;;;;;;5.28;0.95;;;;;;;10.59;78.64;99811.50;5128150;28;20083;-60
2023/10/03 04:22:50;;;;;;;0.73;0.55;;;;;;;10.51;78.87;99803.00;5127712;28;20020;-60
2023/10/03 04:25:20;;;;;;;1.40;0.90;;;;;;;10.48;79.00;99795.28;5127942;28;20031;-60
2023/10/03 04:27:51;;;;;;;0.60;0.60;;;;;;;10.45;79.22;99792.72;5127782;28;20028;-61
2023/10/03 04:30:19;;;;;;;1.05;0.82;;;;;;;10.36;79.48;99784.19;5127879;28;20047;-60
2023/10/03 04:32:47;;;;;;;1.85;0.80;;;;;;;10.30;79.91;99773.94;5127592;28;20042;-59
2023/10/03 04:35:14;;;;;;;2.20;0.50;;;;;;;10.26;80.63;99764.47;5126093;28;20024;-59
2023/10/03 04:37:43;;;;;;;3.05;1.52;;;;;;;10.15;81.12;99760.34;5127258;28;20023;-60
2023/10/03 04:40:22;;;;;;;3.70;1.15;;;;;;;10.09;81.85;99760.44;5127044;28;20079;-60
2023/10/03 04:42:53;;;;;;;2.17;0.90;;;;;;;10.06;82.15;99750.13;5127031;28;20048;-60
2023/10/03 04:45:19;;;;;;;1.67;1.02;;;;;;;10.09;82.88;99749.22;5127532;28;20023;-61
2023/10/03 04:47:48;;;;;;;5.10;1.58;;;;;;;10.10;82.94;99736.22;5127636;28;20020;-60
2023/10/03 04:50:18;;;;;;;1.63;0.82;;;;;;;10.11;82.43;99722.34;5127574;28;20085;-61
2023/10/03 04:52:50;;;;;;;2.10;0.95;;;;;;;10.07;82.20;99723.31;5126723;28;20154;-60
2023/10/03 04:55:19;;;;;;;0.55;0.55;;;;;;;9.94;82.60;99714.88;5127387;28;20047;-60
2023/10/03 04:57:45;;;;;;;1.55;0.73;;;;;;;9.90;82.49;99718.41;5109027;28;20027;-60
2023/10/03 05:00:15;;;;;;;1.73;1.13;;;;;;;9.89;82.57;99719.28;5127541;28;20050;-61
2023/10/03 05:02:47;;;;;;;1.95;0.57;;;;;;;9.85;82.69;99728.00;5108705;28;20019;-59
2023/10/03 05:05:16;;;;;;;2.47;1.25;;;;;;;9.81;82.67;99714.22;5127291;28;20057;-59
2023/10/03 05:07:42;;;;;;;0.55;0.55;;;;;;;9.77;82.60;99702.19;5127011;28;20031;-60
2023/10/03 05:10:08;;;;;;;0.40;0.40;;;;;;;9.74;82.65;99695.34;5127113;28;20020;-60
2023/10/03 05:12:33;;;;;;;0.30;0.30;;;;;;;9.64;82.92;99691.16;5127242;28;20098;-60
2023/10/03 05:14:59;;;;;;;0.73;0.73;;;;;;;9.56;82.95;99665.38;5126876;28;20554;-61
2023/10/03 05:17:26;;;;;;;1.08;0.77;;;;;;;9.58;82.41;99658.44;5126932;28;20024;-61
2023/10/03 05:19:53;;;;;;;0.30;0.30;;;;;;;9.46;82.82;99653.44;5126945;28;20032;-60
2023/10/03 05:22:18;;;;;;;0.55;0.52;;;;;;;9.47;83.15;99650.84;5108273;28;20030;-61
2023/10/03 05:24:44;;;;;;;1.45;0.50;;;;;;;9.37;83.26;99638.91;5126450;28;20047;-60
2023/10/03 05:27:09;;;;;;;1.30;0.80;;;;;;;9.31;83.92;99624.34;5126723;28;20065;-61
2023/10/03 05:29:34;;;;;;;0.38;0.38;;;;;;;9.32;83.94;99623.44;5126582;28;20049;-61
2023/10/03 05:32:00;;;;;;;0.57;0.45;;;;;;;9.24;84.55;99609.75;5126601;28;20340;-61
2023/10/03 05:34:29;;;;;;;2.78;0.70;;;;;;;9.23;84.80;99619.28;5126501;28;20020;-60
2023/10/03 05:36:54;;;;;;;0.30;0.30;;;;;;;9.25;85.31;99616.66;5126304;28;20018;-61
2023/10/03 05:39:20;;;;;;;0.40;0.40;;;;;;;9.30;85.24;99607.06;5108043;28;20023;-61
2023/10/03 05:41:45;;;;;;;0.80;0.68;;;;;;;9.33;85.24;99603.59;5126224;28;20484;-59
2023/10/03 05:44:18;;;;;;;0.90;0.73;;;;;;;9.27;85.83;99600.22;5126106;28;20466;-60
2023/10/03 05:46:43;;;;;;;1.85;1.13;;;;;;;9.29;85.99;99593.28;5126024;28;20035;-61
2023/10/03 05:49:09;;;;;;;0.57;0.57;;;;;;;9.23;86.44;99582.16;5126229;28;20019;-60
2023/10/03 05:51:35;;;;;;;1.20;0.90;;;;;;;9.22;86.86;99585.63;5125987;28;20055;-61
2023/10/03 05:54:02;;;;;;;0.30;0.30;;;;;;;9.23;87.11;99589.91;5126167;28;20027;-60
2023/10/03 05:56:28;;;;;;;0.63;0.63;;;;;;;9.28;87.22;99588.13;5126405;28;20019;-60
2023/10/03 05:58:53;;;;;;;1.95;1.27;;;;;;;9.27;87.66;99587.25;5126039;28;20069;-60
2023/10/03 06:01:18;;;;;;;0.45;0.45;;;;;;;9.33;87.15;99575.09;5126083;28;20042;-59
2023/10/03 06:03:44;;;;;;;1.77;0.90;;;;;;;9.26;87.50;99561.38;5125827;28;20019;-60
2023/10/03 06:06:10;;;;;;;4.00;0.93;;;;;;;9.32;87.64;99563.88;5125543;28;20526;-60
2023/10/03 06:08:35;;;;;;;0.63;0.63;;;;;;;9.28;88.10;99557.88;5125725;28;20064;-60
2023/10/03 06:11:03;;;;;;;1.95;0.80;;;;;;;9.33;87.98;99565.56;5126003;28;20057;-60
2023/10/03 06:13:28;;;;;;;3.40;1.58;;;;;;;9.38;88.20;99571.53;5125844;28;20108;-60
2023/10/03 06:15:54;;;;;;;0.73;0.73;;;;;;;9.28;88.20;99551.84;5124989;28;20457;-60
2023/10/03 06:18:19;;;;;;;1.42;1.00;;;;;;;9.35;88.34;99566.41;5125809;28;20066;-59
2023/10/03 06:20:44;;;;;;;0.98;0.70;;;;;;;9.40;88.27;99568.91;5125853;28;20024;-60
2023/10/03 06:23:10;;;;;;;3.28;1.10;;;;;;;9.40;88.31;99568.91;5125267;28;20068;-61
2023/10/03 06:25:36;;;;;;;1.50;1.20;;;;;;;9.49;88.32;99583.47;5125688;28;20031;-60
2023/10/03 06:28:04;;;;;;;1.08;0.60;;;;;;;9.48;88.25;99577.41;5125757;28;20027;-61
2023/10/03 06:30:29;;;;;;;3.00;1.00;;;;;;;9.48;88.12;99576.53;5125799;28;20024;-60
2023/10/03 06:32:55;;;;;;;1.42;0.73;;;;;;;9.33;88.12;99560.38;5125395;28;20030;-61
2023/10/03 06:35:20;;;;;;;1.90;1.02;;;;;;;9.38;88.33;99581.88;5107804;28;20023;-61
2023/10/03 06:37:47;;;;;;;1.02;1.02;;;;;;;9.37;88.04;99584.50;5125732;28;20023;-62
2023/10/03 06:40:13;;;;;;;2.25;1.17;;;;;;;9.31;88.10;99582.88;5107540;28;20028;-61
2023/10/03 06:42:40;;;;;;;1.13;0.95;;;;;;;9.27;88.51;99583.81;5125618;28;20054;-62
2023/10/03 06:45:11;;;;;;;3.42;1.55;;;;;;;9.28;88.47;99590.72;5125640;28;20045;-62
2023/10/03 06:47:38;;;;;;;0.40;0.40;;;;;;;9.27;88.65;99584.66;5125681;28;20070;-62
2023/10/03 06:50:07;;;;;;;0.30;0.30;;;;;;;9.34;89.00;99593.19;5125692;28;20027;-63
2023/10/03 06:52:34;;;;;;;0.30;0.30;;;;;;;9.36;89.04;99588.00;5125498;28;20024;-62
2023/10/03 06:55:00;;;;;;;0.30;0.30;;;;;;;9.35;89.15;99581.09;5125809;28;20012;-62
2023/10/03 06:57:25;;;;;;;0.40;0.40;;;;;;;9.35;89.40;99560.34;5125594;28;20047;-63
2023/10/03 06:59:52;;;;;;;0.30;0.30;;;;;;;9.29;89.47;99556.16;5129662;28;20019;-65
2023/10/03 07:02:18;;;;;;;0.30;0.30;;;;;;;9.24;90.04;99547.59;5129700;28;20026;-63
2023/10/03 07:04:44;;;;;;;0.30;0.30;;;;;;;9.23;90.11;99540.72;5129313;28;20087;-62
2023/10/03 07:07:10;;;;;;;0.30;0.30;;;;;;;9.20;90.77;99531.25;5129425;28;20045;-64
2023/10/03 07:09:38;;;;;;;0.30;0.30;;;;;;;9.17;90.98;99526.13;5129068;28;20031;-63
2023/10/03 07:12:04;;;;;;;0.30;0.30;;;;;;;9.13;91.17;99514.13;5129100;28;20047;-64
2023/10/03 07:14:30;;;;;;;0.30;0.30;;;;;;;9.12;91.35;99521.00;5129019;28;20035;-64
2023/10/03 07:16:56;;;;;;;0.30;0.30;;;;;;;9.14;91.86;99521.00;5129112;28;20467;-63
2023/10/03 07:19:23;;;;;;;0.30;0.30;;;;;;;9.11;92.03;99521.91;5129020;28;20088;-63
2023/10/03 07:21:51;;;;;;;0.40;0.40;;;;;;;9.20;92.20;99528.66;5128972;28;20046;-64
2023/10/03 07:24:17;;;;;;;0.30;0.30;;;;;;;9.20;92.62;99545.94;5128568;28;20083;-63
2023/10/03 07:26:43;;;;;;;0.40;0.40;;;;;;;9.20;92.75;99556.31;5128736;28;20030;-65
2023/10/03 07:29:08;;;;;;;2.65;2.50;;;;;;;9.17;92.89;99528.69;5110264;28;20051;-63
2023/10/03 07:31:33;;;;;;;0.30;0.30;;;;;;;9.20;92.89;99510.53;5110423;28;20463;-64
2023/10/03 07:33:59;;;;;;;0.30;0.30;;;;;;;9.24;93.41;99501.84;5128602;28;20047;-64
2023/10/03 07:36:25;;;;;;;2.78;2.58;;;;;;;9.23;93.60;99483.75;5128683;28;20023;-64
2023/10/03 07:38:51;;;;;;;0.30;0.30;;;;;;;9.23;93.60;99468.19;5128439;28;20340;-63
2023/10/03 07:41:18;;;;;;;0.30;0.30;;;;;;;9.17;94.06;99477.78;5128010;28;20047;-64
2023/10/03 07:43:47;;;;;;;0.30;0.30;;;;;;;9.14;94.32;99470.06;5128451;28;20015;-64
2023/10/03 07:46:21;;;;;;;0.30;0.30;;;;;;;9.10;94.56;99471.00;5128456;28;20441;-64
2023/10/03 07:48:48;;;;;;;0.30;0.30;;;;;;;9.09;94.91;99463.28;5110151;28;20108;-62
2023/10/03 07:51:17;;;;;;;0.30;0.30;;;;;;;9.04;95.19;99468.53;5128402;28;20023;-62
2023/10/03 07:53:42;;;;;;;0.68;0.68;;;;;;;9.04;95.16;99471.13;5128361;28;20019;-64
2023/10/03 07:56:29;;;;;;;0.30;0.30;;;;;;;8.99;95.59;99459.97;5128182;28;20039;-63
2023/10/03 07:58:56;;;;;;;0.93;0.93;;;;;;;8.97;96.10;99454.81;5111596;28;20043;-64
2023/10/03 08:01:25;;;;;;;0.30;0.30;;;;;;;8.97;96.36;99435.84;5128272;28;20036;-62
2023/10/03 08:03:55;;;;;;;0.30;0.30;;;;;;;8.93;96.45;99406.56;5128148;28;20031;-63
2023/10/03 08:06:25;;;;;;;0.30;0.30;;;;;;;8.90;97.06;99389.34;5128200;28;20034;-64
2023/10/03 08:08:53;;;;;;;0.30;0.30;;;;;;;8.83;96.99;99368.78;5127669;28;20023;-64
2023/10/03 08:11:28;;;;;;;0.30;0.30;;;;;;;8.80;96.96;99347.25;5128463;28;20024;-63
2023/10/03 08:13:54;;;;;;;0.30;0.30;;;;;;;8.77;97.19;99336.13;5128482;28;20043;-63
2023/10/03 08:16:22;;;;;;;0.30;0.30;;;;;;;8.74;97.67;99337.00;5128476;28;20038;-64
2023/10/03 08:18:57;;;;;;;0.30;0.30;;;;;;;8.70;97.90;99325.03;5128238;28;20027;-62
2023/10/03 08:21:24;;;;;;;0.30;0.30;;;;;;;8.73;97.73;99322.38;5128326;28;20023;-63
2023/10/03 08:23:51;;;;;;;0.32;0.32;;;;;;;8.68;98.35;99299.19;5127809;28;20058;-63
2023/10/03 08:26:17;;;;;;;0.30;0.30;;;;;;;8.75;98.31;99304.25;5128120;28;20104;-65
2023/10/03 08:28:42;;;;;;;0.30;0.30;;;;;;;8.76;98.50;99299.03;5128242;28;20019;-63
2023/10/03 08:31:08;;;;;;;0.30;0.30;;;;;;;8.75;98.71;99297.34;5109802;28;20082;-64
2023/10/03 08:33:36;;;;;;;0.30;0.30;;;;;;;8.77;98.94;99299.91;5128221;28;20030;-63
2023/10/03 08:36:14;;;;;;;0.30;0.30;;;;;;;8.77;99.14;99281.78;5128173;28;20019;-63
2023/10/03 08:38:43;;;;;;;0.30;0.30;;;;;;;8.78;99.05;99291.25;5109390;28;20019;-63
2023/10/03 08:41:12;;;;;;;0.30;0.30;;;;;;;8.75;99.45;99281.81;5127647;28;20027;-64
2023/10/03 08:43:38;;;;;;;0.30;0.30;;;;;;;8.85;99.60;99292.81;5127580;28;20020;-63
2023/10/03 08:46:09;;;;;;;0.30;0.30;;;;;;;8.83;99.63;99276.50;5127698;28;20621;-63
2023/10/03 08:48:43;;;;;;;0.30;0.30;;;;;;;8.80;99.53;99263.59;5109324;28;20024;-62
2023/10/03 08:51:13;;;;;;;0.30;0.30;;;;;;;8.76;99.82;99261.94;5127867;28;20103;-62
2023/10/03 08:53:47;;;;;;;0.30;0.30;;;;;;;8.75;100.00;99263.69;5127492;28;20019;-63
2023/10/03 08:56:18;;;;;;;0.30;0.30;;;;;;;8.73;99.93;99249.06;5127879;28;20102;-63
2023/10/03 08:58:48;;;;;;;0.30;0.30;;;;;;;8.56;99.86;99229.56;5127756;28;20027;-63
2023/10/03 09:01:17;;;;;;;0.30;0.30;;;;;;;8.58;100.00;99232.94;5127266;28;20591;-63
2023/10/03 09:03:50;;;;;;;0.32;0.32;;;;;;;8.50;100.00;99233.06;5127233;28;20087;-61
2023/10/03 09:06:23;;;;;;;0.30;0.30;;;;;;;8.53;100.00;99224.41;5127260;28;20020;-62
2023/10/03 09:09:08;;;;;;;0.30;0.30;;;;;;;8.50;100.00;99216.72;5108717;28;20031;-63
2023/10/03 09:11:38;;;;;;;0.30;0.30;;;;;;;8.47;100.00;99208.97;5127402;28;20019;-63
2023/10/03 09:14:05;;;;;;;0.30;0.30;;;;;;;8.45;100.00;99203.84;5127196;28;20024;-64
2023/10/03 09:16:30;;;;;;;0.30;0.30;;;;;;;8.47;100.00;99196.06;5127266;28;20020;-62
2023/10/03 09:18:59;;;;;;;0.30;0.30;;;;;;;8.47;100.00;99193.47;5127380;28;20024;-63
2023/10/03 09:21:27;;;;;;;0.30;0.30;;;;;;;8.43;100.00;99183.19;5126414;28;20023;-62
2023/10/03 09:24:01;;;;;;;0.30;0.30;;;;;;;8.45;100.00;99177.16;5108593;28;20024;-63
2023/10/03 09:26:47;;;;;;;0.30;0.30;;;;;;;8.39;100.00;99149.66;5108695;28;20031;-62
2023/10/03 09:29:18;;;;;;;0.30;0.30;;;;;;;8.45;100.00;99159.88;5126668;28;20051;-63
2023/10/03 09:31:48;;;;;;;0.30;0.30;;;;;;;8.45;100.00;99146.09;5127020;28;20026;-62
2023/10/03 09:34:15;;;;;;;0.38;0.38;;;;;;;8.45;100.00;99133.19;5126780;28;20404;-62
2023/10/03 09:36:41;;;;;;;0.30;0.30;;;;;;;8.48;100.00;99123.59;5126835;28;20065;-63
2023/10/03 09:39:07;;;;;;;0.30;0.30;;;;;;;8.52;100.00;99114.91;5126600;28;20102;-63
2023/10/03 09:41:38;;;;;;;0.30;0.30;;;;;;;8.52;100.00;99107.16;5126442;28;20042;-62
2023/10/03 09:44:05;;;;;;;0.30;0.30;;;;;;;8.54;100.00;99108.00;5126665;28;20030;-61
2023/10/03 09:46:40;;;;;;;0.30;0.30;;;;;;;8.55;100.00;99103.66;5126495;28;20047;-63
2023/10/03 09:49:09;;;;;;;0.30;0.30;;;;;;;8.61;100.00;99087.19;5126627;28;20028;-63
2023/10/03 09:51:51;;;;;;;0.30;0.30;;;;;;;8.61;100.00;99080.25;5126466;28;20015;-62
2023/10/03 09:54:24;;;;;;;0.40;0.40;;;;;;;8.61;100.00;99067.31;5126263;28;20034;-62
2023/10/03 09:56:55;;;;;;;0.30;0.30;;;;;;;8.64;100.00;99069.84;5126455;28;20020;-63
2023/10/03 09:59:23;;;;;;;0.30;0.30;;;;;;;8.65;100.00;99074.16;5126515;28;20049;-62
2023/10/03 10:01:49;;;;;;;0.30;0.30;;;;;;;8.60;100.00;99050.09;5126277;28;20544;-62
2023/10/03 10:04:19;;;;;;;0.30;0.30;;;;;;;8.68;100.00;99058.56;5126416;28;20028;-62
2023/10/03 10:06:50;;;;;;;0.30;0.30;;;;;;;8.68;100.00;99044.75;5126280;28;20043;-61
2023/10/03 10:09:28;;;;;;;0.30;0.30;;;;;;;8.73;100.00;99049.81;5126307;28;20028;-62
2023/10/03 10:12:19;;;;;;;0.30;0.30;;;;;;;8.77;100.00;99041.13;5126197;28;20083;-62
2023/10/03 10:15:00;;;;;;;0.30;0.30;;;;;;;8.80;100.00;99041.06;5126153;28;20024;-62
2023/10/03 10:17:51;;;;;;;0.30;0.30;;;;;;;8.81;100.00;99037.56;5126088;28;20030;-61
2023/10/03 10:20:38;;;;;;;0.30;0.30;;;;;;;8.83;100.00;99019.41;5126195;28;20313;-62
2023/10/03 10:25:51;;;;;;;0.30;0.30;;;;;;;8.84;100.00;99006.44;5126133;28;20028;-63
2023/10/03 10:28:23;;;;;;;0.30;0.30;;;;;;;8.91;100.00;99012.31;5107733;28;20024;-62
2023/10/03 10:31:17;;;;;;;0.40;0.40;;;;;;;8.99;100.00;99015.59;5126066;28;20026;-64
2023/10/03 10:33:43;;;;;;;0.30;0.30;;;;;;;9.07;100.00;99010.22;5125067;28;20412;-63
2023/10/03 10:36:09;;;;;;;0.30;0.30;;;;;;;9.11;100.00;99009.25;5125782;28;20012;-62
2023/10/03 10:38:34;;;;;;;0.30;0.30;;;;;;;9.17;100.00;98998.72;5134962;22;20080;-64
2023/10/03 10:41:18;;;;;;;0.30;0.30;;;;;;;9.16;100.00;98999.63;5090023;23;20064;-67
2023/10/03 10:44:06;;;;;;;0.30;0.30;;;;;;;9.23;100.00;98992.56;5084949;28;20046;-66
2023/10/03 10:46:32;;;;;;;0.30;0.30;;;;;;;9.24;100.00;98983.03;5084895;28;20021;-67
2023/10/03 10:48:57;;;;;;;0.30;0.30;;;;;;;9.32;100.00;98970.72;5084760;28;20056;-67
2023/10/03 10:51:23;;;;;;;0.30;0.30;;;;;;;9.40;100.00;98968.78;5084986;28;20031;-66
2023/10/03 10:53:51;;;;;;;0.40;0.40;;;;;;;9.45;100.00;98975.59;5083489;28;20020;-66
2023/10/03 10:56:16;;;;;;;0.30;0.30;;;;;;;9.49;100.00;98982.41;5083576;28;20023;-67
2023/10/03 10:59:04;;;;;;;0.30;0.30;;;;;;;9.57;100.00;98982.19;5085084;28;20028;-66
2023/10/03 11:01:36;;;;;;;0.30;0.30;;;;;;;9.59;100.00;98990.75;5084823;28;20028;-67
2023/10/03 11:04:02;;;;;;;0.40;0.40;;;;;;;9.64;100.00;98986.28;5084767;28;20020;-66
2023/10/03 11:06:28;;;;;;;0.30;0.30;;;;;;;9.63;100.00;98984.59;5083197;28;20405;-66
2023/10/03 11:08:54;;;;;;;0.30;0.30;;;;;;;9.63;100.00;98987.19;5084462;28;20024;-65
2023/10/03 11:11:20;;;;;;;0.30;0.30;;;;;;;9.65;100.00;98994.03;5084811;28;20035;-65
2023/10/03 11:13:51;;;;;;;0.30;0.30;;;;;;;9.67;100.00;99001.75;5084541;28;20025;-65
2023/10/03 11:16:25;;;;;;;0.40;0.40;;;;;;;9.63;100.00;98982.84;5084671;28;20134;-64
2023/10/03 11:18:54;;;;;;;0.30;0.30;;;;;;;9.61;100.00;98997.59;5084816;28;20032;-65
2023/10/03 11:21:19;;;;;;;0.30;0.30;;;;;;;9.61;100.00;98982.06;5084772;28;20024;-64
2023/10/03 11:24:07;;;;;;;0.30;0.30;;;;;;;9.59;100.00;98985.56;5084324;28;20107;-65
2023/10/03 11:26:46;;;;;;;0.30;0.30;;;;;;;9.58;100.00;98984.72;5084612;28;20028;-65
2023/10/03 11:29:14;;;;;;;0.30;0.30;;;;;;;9.60;100.00;98995.06;5084778;28;20020;-64
2023/10/03 11:31:44;;;;;;;0.30;0.30;;;;;;;9.60;100.00;98995.88;5084547;28;20027;-66
2023/10/03 11:34:09;;;;;;;0.30;0.30;;;;;;;9.61;100.00;98986.38;5084469;28;20024;-65
2023/10/03 11:36:45;;;;;;;0.30;0.30;;;;;;;9.59;100.00;98998.50;5084433;28;20089;-66
2023/10/03 11:39:18;;;;;;;0.30;0.30;;;;;;;9.57;100.00;98992.56;5084246;28;20111;-65
2023/10/03 11:41:44;;;;;;;0.30;0.30;;;;;;;9.52;100.00;98997.84;5084262;28;20049;-66
2023/10/03 11:44:20;;;;;;;0.30;0.30;;;;;;;9.49;100.00;99029.03;5085567;28;20035;-66
2023/10/03 11:46:46;;;;;;;0.30;0.30;;;;;;;9.47;100.00;99038.56;5086357;28;20028;-66